createdAt,value
2022-12-06T00:02:25.658Z,101124.34
2022-12-06T00:04:52.218Z,101114.19
2022-12-06T00:07:18.633Z,101118.22
2022-12-06T00:09:45.121Z,101120.69
2022-12-06T00:12:11.573Z,101125.25
2022-12-06T00:14:38.066Z,101126.78
2022-12-06T00:17:04.542Z,101129.66
2022-12-06T00:19:30.982Z,101131.28
2022-12-06T00:21:57.559Z,101129.53
2022-12-06T00:24:24.042Z,101124.44
2022-12-06T00:26:51.021Z,101117.88
2022-12-06T00:29:19.232Z,101132.78
2022-12-06T00:31:45.971Z,101127.88
2022-12-06T00:34:12.850Z,101128.63
2022-12-06T00:36:40.095Z,101124.09
2022-12-06T00:39:08.017Z,101128.56
2022-12-06T00:41:34.572Z,101117.47
2022-12-06T00:44:01.042Z,101119.16
2022-12-06T00:46:28.894Z,101115.91
2022-12-06T00:48:56.451Z,101113.75
2022-12-06T00:51:23.667Z,101112.88
2022-12-06T00:53:50.420Z,101113.81
2022-12-06T00:56:17.717Z,101110.47
2022-12-06T00:58:44.203Z,101111.56
2022-12-06T01:01:11.684Z,101106.38
2022-12-06T01:03:38.850Z,101107.88
2022-12-06T01:06:06.561Z,101111.41
2022-12-06T01:08:33.155Z,101109.78
2022-12-06T01:10:59.635Z,101110.53
2022-12-06T01:13:26.368Z,101104.84
2022-12-06T01:15:54.262Z,101099.78
2022-12-06T01:18:21.594Z,101101.22
2022-12-06T01:20:48.515Z,101107.22
2022-12-06T01:23:15.521Z,101097.69
2022-12-06T01:25:51.922Z,101099.53
2022-12-06T01:28:18.677Z,101097.41
2022-12-06T01:30:45.230Z,101093.00
2022-12-06T01:33:11.766Z,101090.56
2022-12-06T01:35:41.581Z,101094.13
2022-12-06T01:38:08.849Z,101099.06
2022-12-06T01:40:39.537Z,101096.69
2022-12-06T01:43:06.312Z,101102.69
2022-12-06T01:45:33.011Z,101094.72
2022-12-06T01:47:59.491Z,101106.13
2022-12-06T01:50:29.323Z,101101.44
2022-12-06T01:52:55.772Z,101099.06
2022-12-06T01:55:25.460Z,101110.94
2022-12-06T01:57:53.809Z,101103.41
2022-12-06T02:00:20.270Z,101100.75
2022-12-06T02:02:46.809Z,101097.47
2022-12-06T02:05:13.608Z,101096.56
2022-12-06T02:07:40.811Z,101095.66
2022-12-06T02:10:07.736Z,101089.66
2022-12-06T02:12:34.158Z,101094.66
2022-12-06T02:15:00.611Z,101093.66
2022-12-06T02:17:27.074Z,101080.97
2022-12-06T02:20:03.705Z,101075.09
2022-12-06T02:22:30.215Z,101073.22
2022-12-06T02:24:56.636Z,101069.06
2022-12-06T02:27:37.877Z,101067.34
2022-12-06T02:30:09.074Z,101063.38
2022-12-06T02:32:40.597Z,101075.25
2022-12-06T02:35:14.585Z,101071.84
2022-12-06T02:37:44.956Z,101060.66
2022-12-06T02:40:17.385Z,101059.75
2022-12-06T02:42:53.329Z,101061.44
2022-12-06T02:45:21.903Z,101056.38
2022-12-06T02:47:50.179Z,101052.06
2022-12-06T02:50:18.680Z,101058.28
2022-12-06T02:52:47.159Z,101057.25
2022-12-06T02:55:13.837Z,101050.91
2022-12-06T02:57:44.846Z,101055.25
2022-12-06T03:00:30.179Z,101055.31
2022-12-06T03:03:11.371Z,101053.72
2022-12-06T03:05:45.561Z,101055.47
2022-12-06T03:08:18.581Z,101050.31
2022-12-06T03:10:47.389Z,101053.66
2022-12-06T03:13:19.374Z,101039.94
2022-12-06T03:15:55.029Z,101041.47
2022-12-06T03:18:26.341Z,101037.34
2022-12-06T03:20:56.413Z,101032.88
2022-12-06T03:23:33.037Z,101031.94
2022-12-06T03:26:00.772Z,101025.28
2022-12-06T03:28:28.543Z,101027.75
2022-12-06T03:30:58.064Z,101027.38
2022-12-06T03:33:26.567Z,101016.19
2022-12-06T03:35:54.772Z,101019.00
2022-12-06T03:38:25.251Z,101026.72
2022-12-06T03:40:52.875Z,101025.19
2022-12-06T03:43:19.729Z,101016.41
2022-12-06T03:45:46.164Z,101016.34
2022-12-06T03:48:19.589Z,101016.72
2022-12-06T03:50:58.186Z,101020.09
2022-12-06T03:53:25.318Z,101014.22
2022-12-06T03:55:51.783Z,101016.72
2022-12-06T03:58:18.222Z,101018.72
2022-12-06T04:00:44.938Z,101009.22
2022-12-06T04:03:11.401Z,101008.56
2022-12-06T04:05:37.870Z,101005.56
2022-12-06T04:08:04.514Z,100999.91
2022-12-06T04:10:30.993Z,101007.53
2022-12-06T04:13:05.864Z,100999.53
2022-12-06T04:15:37.375Z,100997.91
2022-12-06T04:18:13.447Z,100997.03
2022-12-06T04:21:03.463Z,101001.47
2022-12-06T04:23:31.270Z,100985.88
2022-12-06T04:25:57.866Z,100993.63
2022-12-06T04:28:43.060Z,100985.75
2022-12-06T04:31:28.279Z,100980.47
2022-12-06T04:34:13.436Z,100975.88
2022-12-06T04:36:58.684Z,100978.19
2022-12-06T04:39:25.413Z,100969.94
2022-12-06T04:42:11.485Z,100970.13
2022-12-06T04:44:38.257Z,100964.63
2022-12-06T04:47:05.324Z,100961.28
2022-12-06T04:49:31.866Z,100967.25
2022-12-06T04:51:58.315Z,100954.56
2022-12-06T04:54:25.096Z,100957.91
2022-12-06T04:56:51.637Z,100954.09
2022-12-06T04:59:18.101Z,100946.69
2022-12-06T05:01:44.623Z,100946.59
2022-12-06T05:04:11.115Z,100949.97
2022-12-06T05:06:37.677Z,100948.41
2022-12-06T05:09:04.347Z,100950.16
2022-12-06T05:11:30.806Z,100947.56
2022-12-06T05:13:57.360Z,100949.50
2022-12-06T05:16:23.852Z,100952.34
2022-12-06T05:18:50.352Z,100950.91
2022-12-06T05:21:18.130Z,100949.31
2022-12-06T05:23:44.910Z,100957.28
2022-12-06T05:26:13.595Z,100951.84
2022-12-06T05:28:40.336Z,100949.28
2022-12-06T05:31:07.274Z,100948.38
2022-12-06T05:33:33.830Z,100956.94
2022-12-06T05:36:00.305Z,100953.59
2022-12-06T05:38:26.797Z,100948.63
2022-12-06T05:40:53.250Z,100952.72
2022-12-06T05:43:19.672Z,100949.22
2022-12-06T05:45:46.281Z,100951.75
2022-12-06T05:48:12.734Z,100951.75
2022-12-06T05:50:39.268Z,100944.19
2022-12-06T05:53:06.151Z,100949.34
2022-12-06T05:55:32.603Z,100952.34
2022-12-06T05:57:59.079Z,100948.53
2022-12-06T06:00:25.620Z,100956.22
2022-12-06T06:02:52.221Z,100943.47
2022-12-06T06:05:18.845Z,100946.94
2022-12-06T06:07:45.352Z,100951.41
2022-12-06T06:10:11.923Z,100956.31
2022-12-06T06:12:38.570Z,100956.44
2022-12-06T06:15:07.242Z,100953.56
2022-12-06T06:17:34.340Z,100946.59
2022-12-06T06:20:05.462Z,100949.31
2022-12-06T06:22:36.138Z,100945.13
2022-12-06T06:25:03.016Z,100942.84
2022-12-06T06:27:32.219Z,100942.16
2022-12-06T06:29:58.964Z,100951.97
2022-12-06T06:32:25.632Z,100946.63
2022-12-06T06:34:52.284Z,100953.78
2022-12-06T06:37:18.852Z,100953.59
2022-12-06T06:39:45.334Z,100953.47
2022-12-06T06:42:11.789Z,100954.75
2022-12-06T06:44:38.318Z,100957.75
2022-12-06T06:47:04.921Z,100958.34
2022-12-06T06:49:31.560Z,100955.75
2022-12-06T06:51:58.078Z,100955.63
2022-12-06T06:54:25.211Z,100959.53
2022-12-06T06:56:51.891Z,100961.50
2022-12-06T06:59:18.383Z,100951.16
2022-12-06T07:01:44.926Z,100950.44
2022-12-06T07:04:11.449Z,100950.25
2022-12-06T07:06:37.996Z,100953.88
2022-12-06T07:09:04.488Z,100958.88
2022-12-06T07:11:31.055Z,100948.66
2022-12-06T07:13:57.520Z,100944.38
2022-12-06T07:16:23.996Z,100952.03
2022-12-06T07:18:50.561Z,100956.31
2022-12-06T07:21:17.288Z,100963.16
2022-12-06T07:23:43.782Z,100957.97
2022-12-06T07:26:12.008Z,100953.81
2022-12-06T07:28:39.655Z,100950.25
2022-12-06T07:31:09.395Z,100958.88
2022-12-06T07:33:35.913Z,100958.81
2022-12-06T07:36:12.047Z,100963.72
2022-12-06T07:38:39.688Z,100960.38
2022-12-06T07:41:30.204Z,100960.38
2022-12-06T07:44:16.454Z,100963.53
2022-12-06T07:46:43.231Z,100966.81
2022-12-06T07:49:10.494Z,100962.72
2022-12-06T07:51:37.365Z,100960.03
2022-12-06T07:54:04.267Z,100965.81
2022-12-06T07:56:30.754Z,100964.09
2022-12-06T07:58:57.361Z,100966.66
2022-12-06T08:01:24.031Z,100965.56
2022-12-06T08:03:50.661Z,100964.19
2022-12-06T08:06:17.323Z,100971.22
2022-12-06T08:08:43.750Z,100970.16
2022-12-06T08:11:10.255Z,100968.47
2022-12-06T08:13:37.261Z,100961.50
2022-12-06T08:16:08.121Z,100961.59
2022-12-06T08:18:34.781Z,100964.22
2022-12-06T08:21:01.482Z,100967.38
2022-12-06T08:23:33.647Z,100967.50
2022-12-06T08:26:01.930Z,100960.50
2022-12-06T08:28:29.301Z,100961.41
2022-12-06T08:31:01.306Z,100966.44
2022-12-06T08:33:29.517Z,100963.72
2022-12-06T08:35:55.989Z,100958.50
2022-12-06T08:38:22.509Z,100960.41
2022-12-06T08:40:48.966Z,100965.09
2022-12-06T08:43:15.474Z,100963.63
2022-12-06T08:45:41.967Z,100965.94
2022-12-06T08:48:08.729Z,100967.81
2022-12-06T08:50:35.166Z,100961.00
2022-12-06T08:53:01.665Z,100964.50
2022-12-06T08:55:28.096Z,100967.91
2022-12-06T08:57:54.592Z,100970.00
2022-12-06T09:00:21.206Z,100961.47
2022-12-06T09:02:47.697Z,100961.84
2022-12-06T09:05:14.172Z,100960.50
2022-12-06T09:07:40.705Z,100961.53
2022-12-06T09:10:07.723Z,100953.28
2022-12-06T09:12:34.175Z,100957.44
2022-12-06T09:15:00.641Z,100962.28
2022-12-06T09:17:27.095Z,100959.47
2022-12-06T09:19:53.529Z,100960.31
2022-12-06T09:22:20.032Z,100956.09
2022-12-06T09:24:46.569Z,100962.06
2022-12-06T09:27:13.052Z,100968.53
2022-12-06T09:29:40.967Z,100960.31
2022-12-06T09:32:07.662Z,100956.16
2022-12-06T09:34:34.232Z,100951.31
2022-12-06T09:37:10.927Z,100953.38
2022-12-06T09:39:40.128Z,100954.09
2022-12-06T09:42:18.753Z,100958.41
2022-12-06T09:45:04.216Z,100956.88
2022-12-06T09:47:49.536Z,100950.88
2022-12-06T09:50:31.391Z,100949.88
2022-12-06T09:52:57.867Z,100948.50
2022-12-06T09:55:30.146Z,100934.84
2022-12-06T09:58:06.047Z,100939.59
2022-12-06T10:00:38.520Z,100940.75
2022-12-06T10:03:34.259Z,100938.59
2022-12-06T10:06:02.670Z,100939.84
2022-12-06T10:08:47.736Z,100930.97
2022-12-06T10:11:23.167Z,100931.47
2022-12-06T10:14:04.970Z,100926.06
2022-12-06T10:16:31.457Z,100920.75
2022-12-06T10:19:10.138Z,100918.94
2022-12-06T10:21:36.569Z,100923.00
2022-12-06T10:24:14.709Z,100910.88
2022-12-06T10:26:44.114Z,100914.06
2022-12-06T10:29:25.794Z,100909.00
2022-12-06T10:32:18.898Z,100911.72
2022-12-06T10:34:51.344Z,100904.94
2022-12-06T10:37:28.252Z,100904.28
2022-12-06T10:40:04.248Z,100900.91
2022-12-06T10:42:45.645Z,100901.41
2022-12-06T10:45:49.744Z,100899.72
2022-12-06T10:48:22.096Z,100902.91
2022-12-06T10:50:53.262Z,100903.88
2022-12-06T10:53:22.833Z,100895.16
2022-12-06T10:55:56.413Z,100892.53
2022-12-06T10:58:31.313Z,100899.88
2022-12-06T11:00:59.683Z,100889.41
2022-12-06T11:03:26.223Z,100888.69
2022-12-06T11:06:02.053Z,100895.66
2022-12-06T11:08:28.451Z,100892.19
2022-12-06T11:10:56.287Z,100887.38
2022-12-06T11:13:37.963Z,100886.44
2022-12-06T11:16:23.315Z,100884.59
2022-12-06T11:18:50.296Z,100889.00
2022-12-06T11:21:55.278Z,100878.25
2022-12-06T11:24:26.586Z,100879.84
2022-12-06T11:27:15.664Z,100879.88
2022-12-06T11:29:43.213Z,100871.75
2022-12-06T11:32:11.664Z,100877.09
2022-12-06T11:34:39.766Z,100872.41
2022-12-06T11:37:06.873Z,100874.03
2022-12-06T11:39:34.118Z,100873.91
2022-12-06T11:42:03.220Z,100868.16
2022-12-06T11:44:38.524Z,100861.53
2022-12-06T11:47:05.797Z,100865.00
2022-12-06T11:49:32.256Z,100858.03
2022-12-06T11:52:03.321Z,100856.78
2022-12-06T11:54:33.708Z,100856.50
2022-12-06T11:57:03.191Z,100855.63
2022-12-06T11:59:30.591Z,100857.44
2022-12-06T12:02:01.317Z,100848.66
2022-12-06T12:04:41.371Z,100850.63
2022-12-06T12:07:18.500Z,100846.50
2022-12-06T12:09:47.690Z,100843.00
2022-12-06T12:12:19.711Z,100839.50
2022-12-06T12:14:51.332Z,100844.50
2022-12-06T12:17:23.021Z,100837.94
2022-12-06T12:19:52.024Z,100836.41
2022-12-06T12:22:21.581Z,100835.47
2022-12-06T12:27:47.130Z,100835.25
2022-12-06T12:30:28.901Z,100844.44
2022-12-06T12:33:07.605Z,100841.25
2022-12-06T12:35:35.320Z,100831.91
2022-12-06T12:38:06.134Z,100835.28
2022-12-06T12:40:37.141Z,100828.69
2022-12-06T12:43:23.862Z,100821.03
2022-12-06T12:46:03.275Z,100824.91
2022-12-06T12:48:30.211Z,100830.34
2022-12-06T12:51:02.149Z,100824.38
2022-12-06T12:53:44.827Z,100824.94
2022-12-06T12:56:21.695Z,100822.06
2022-12-06T12:58:49.511Z,100823.97
2022-12-06T13:01:25.337Z,100820.22
2022-12-06T13:03:54.744Z,100823.03
2022-12-06T13:06:39.076Z,100819.81
2022-12-06T13:09:06.383Z,100822.63
2022-12-06T13:11:43.489Z,100819.69
2022-12-06T13:14:15.831Z,100819.72
2022-12-06T13:16:42.703Z,100824.34
2022-12-06T13:19:14.199Z,100815.78
2022-12-06T13:21:42.943Z,100819.66
2022-12-06T13:24:12.480Z,100817.06
2022-12-06T13:26:41.426Z,100817.34
2022-12-06T13:29:27.122Z,100810.47
2022-12-06T13:31:54.832Z,100807.91
2022-12-06T13:34:26.568Z,100805.81
2022-12-06T13:36:53.508Z,100805.22
2022-12-06T13:39:32.167Z,100804.31
2022-12-06T13:42:18.299Z,100808.47
2022-12-06T13:44:47.903Z,100806.31
2022-12-06T13:47:26.339Z,100808.19
2022-12-06T13:49:53.948Z,100811.09
2022-12-06T13:52:39.002Z,100809.03
2022-12-06T13:55:23.883Z,100807.28
2022-12-06T13:58:16.321Z,100802.88
2022-12-06T14:00:42.794Z,100803.59
2022-12-06T14:03:21.644Z,100801.03
2022-12-06T14:08:25.431Z,100803.03
2022-12-06T14:10:51.923Z,100808.91
2022-12-06T14:13:19.385Z,100801.16
2022-12-06T14:15:47.211Z,100804.59
2022-12-06T14:18:18.583Z,100802.66
2022-12-06T14:20:47.397Z,100803.72
2022-12-06T14:23:24.905Z,100795.78
2022-12-06T14:25:51.404Z,100793.03
2022-12-06T14:28:19.018Z,100801.53
2022-12-06T14:30:46.273Z,100802.72
2022-12-06T14:33:22.798Z,100795.41
2022-12-06T14:35:53.110Z,100798.34
2022-12-06T14:38:30.047Z,100792.41
2022-12-06T14:41:15.479Z,100788.59
2022-12-06T14:43:42.589Z,100790.72
2022-12-06T14:46:13.773Z,100799.31
2022-12-06T14:48:58.922Z,100796.81
2022-12-06T14:51:27.007Z,100797.78
2022-12-06T14:53:53.447Z,100795.59
2022-12-06T14:56:31.431Z,100792.94
2022-12-06T14:58:59.014Z,100786.69
2022-12-06T15:01:26.861Z,100797.22
2022-12-06T15:04:00.924Z,100794.69
2022-12-06T15:06:29.026Z,100789.69
2022-12-06T15:08:58.459Z,100797.47
2022-12-06T15:11:50.028Z,100789.00
2022-12-06T15:14:22.311Z,100795.56
2022-12-06T15:17:02.932Z,100798.09
2022-12-06T15:19:30.930Z,100796.69
2022-12-06T15:21:57.387Z,100792.03
2022-12-06T15:24:25.156Z,100793.38
2022-12-06T15:26:52.022Z,100784.63
2022-12-06T15:29:18.606Z,100790.16
2022-12-06T15:31:49.648Z,100787.78
2022-12-06T15:34:18.820Z,100785.34
2022-12-06T15:36:45.265Z,100784.19
2022-12-06T15:39:12.359Z,100781.53
2022-12-06T15:41:39.231Z,100781.06
2022-12-06T15:44:05.677Z,100780.81
2022-12-06T15:46:35.785Z,100781.69
2022-12-06T15:49:02.257Z,100781.84
2022-12-06T15:51:29.285Z,100778.44
2022-12-06T15:53:56.531Z,100782.69
2022-12-06T15:56:23.964Z,100786.31
2022-12-06T15:58:50.922Z,100787.13
2022-12-06T16:01:19.575Z,100788.38
2022-12-06T16:03:46.105Z,100788.19
2022-12-06T16:06:16.395Z,100785.19
2022-12-06T16:08:43.157Z,100784.44
2022-12-06T16:11:12.249Z,100788.31
2022-12-06T16:13:39.237Z,100791.16
2022-12-06T16:16:05.915Z,100791.75
2022-12-06T16:18:32.458Z,100795.31
2022-12-06T16:20:59.126Z,100798.91
2022-12-06T16:26:37.226Z,100785.97
2022-12-06T16:29:04.911Z,100788.31
2022-12-06T16:31:35.141Z,100783.78
2022-12-06T16:34:04.799Z,100780.84
2022-12-06T16:36:32.113Z,100784.00
2022-12-06T16:39:03.379Z,100778.59
2022-12-06T16:41:32.251Z,100783.63
2022-12-06T16:43:58.995Z,100785.16
2022-12-06T16:46:25.526Z,100783.78
2022-12-06T16:49:44.054Z,100783.53
2022-12-06T16:52:00.669Z,100788.41
2022-12-06T16:54:27.109Z,100785.22
2022-12-06T16:56:53.637Z,100793.94
2022-12-06T16:59:20.092Z,100794.56
2022-12-06T17:01:47.790Z,100788.44
2022-12-06T17:04:14.251Z,100790.06
2022-12-06T17:06:40.790Z,100793.78
2022-12-06T17:09:07.286Z,100790.09
2022-12-06T17:11:53.353Z,100788.59
2022-12-06T17:14:24.358Z,100789.66
2022-12-06T17:16:53.225Z,100784.84
2022-12-06T17:19:23.174Z,100794.59
2022-12-06T17:21:57.985Z,100793.00
2022-12-06T17:24:27.839Z,100791.66
2022-12-06T17:26:59.115Z,100805.06
2022-12-06T17:29:28.961Z,100799.09
2022-12-06T17:31:56.128Z,100790.66
2022-12-06T17:34:22.790Z,100794.13
2022-12-06T17:36:49.947Z,100798.59
2022-12-06T17:39:20.440Z,100796.44
2022-12-06T17:42:05.768Z,100798.19
2022-12-06T17:44:32.820Z,100808.50
2022-12-06T17:47:02.293Z,100805.81
2022-12-06T17:49:38.528Z,100806.97
2022-12-06T17:52:16.692Z,100806.47
2022-12-06T17:54:43.491Z,100807.13
2022-12-06T17:57:12.748Z,100815.72
2022-12-06T17:59:49.659Z,100809.78
2022-12-06T18:02:19.054Z,100805.19
2022-12-06T18:04:53.073Z,100805.22
2022-12-06T18:07:20.600Z,100803.84
2022-12-06T18:09:47.301Z,100809.66
2022-12-06T18:12:16.903Z,100809.78
2022-12-06T18:15:13.525Z,100804.56
2022-12-06T18:17:43.304Z,100814.00
2022-12-06T18:20:18.333Z,100811.50
2022-12-06T18:22:44.787Z,100808.59
2022-12-06T18:25:14.697Z,100808.59
2022-12-06T18:27:43.252Z,100807.13
2022-12-06T18:30:12.356Z,100805.97
2022-12-06T18:32:42.796Z,100803.91
2022-12-06T18:35:15.193Z,100813.38
2022-12-06T18:37:42.234Z,100812.59
2022-12-06T18:40:09.368Z,100808.25
2022-12-06T18:42:41.608Z,100808.28
2022-12-06T18:45:10.832Z,100809.31
2022-12-06T18:47:43.118Z,100798.22
2022-12-06T18:50:12.069Z,100803.25
2022-12-06T18:52:38.574Z,100795.03
2022-12-06T18:55:05.315Z,100794.88
2022-12-06T18:57:38.803Z,100803.53
2022-12-06T19:00:17.124Z,100801.94
2022-12-06T19:02:47.675Z,100800.34
2022-12-06T19:05:46.042Z,100796.16
2022-12-06T19:08:09.602Z,100790.97
2022-12-06T19:10:36.543Z,100785.81
2022-12-06T19:13:08.413Z,100794.25
2022-12-06T19:15:37.437Z,100792.94
2022-12-06T19:18:07.625Z,100785.16
2022-12-06T19:20:34.260Z,100791.78
2022-12-06T19:23:02.562Z,100789.13
2022-12-06T19:25:32.534Z,100789.69
2022-12-06T19:27:59.103Z,100793.28
2022-12-06T19:30:25.927Z,100784.66
2022-12-06T19:33:00.606Z,100783.06
2022-12-06T19:35:27.286Z,100785.16
2022-12-06T19:38:01.003Z,100783.22
2022-12-06T19:40:28.291Z,100783.03
2022-12-06T19:43:20.466Z,100784.03
2022-12-06T19:45:47.005Z,100779.53
2022-12-06T19:48:14.721Z,100781.38
2022-12-06T19:50:41.301Z,100786.09
2022-12-06T19:53:12.884Z,100776.00
2022-12-06T19:55:48.067Z,100777.53
2022-12-06T19:58:14.737Z,100779.09
2022-12-06T20:00:50.238Z,100777.22
2022-12-06T20:03:17.123Z,100781.13
2022-12-06T20:05:43.686Z,100777.47
2022-12-06T20:08:13.243Z,100776.31
2022-12-06T20:10:40.371Z,100775.69
2022-12-06T20:13:08.800Z,100776.47
2022-12-06T20:15:35.415Z,100780.31
2022-12-06T20:18:04.650Z,100784.28
2022-12-06T20:20:31.371Z,100775.50
2022-12-06T20:22:57.866Z,100772.91
2022-12-06T20:25:24.388Z,100776.69
2022-12-06T20:27:51.121Z,100777.34
2022-12-06T20:30:21.825Z,100778.13
2022-12-06T20:32:48.867Z,100771.09
2022-12-06T20:35:15.829Z,100769.44
2022-12-06T20:37:42.489Z,100772.00
2022-12-06T20:40:09.449Z,100767.94
2022-12-06T20:42:35.949Z,100768.84
2022-12-06T20:45:02.535Z,100765.13
2022-12-06T20:47:29.148Z,100763.53
2022-12-06T20:49:59.219Z,100766.56
2022-12-06T20:52:28.003Z,100760.13
2022-12-06T20:54:57.572Z,100758.06
2022-12-06T20:57:29.440Z,100759.28
2022-12-06T20:59:55.919Z,100754.88
2022-12-06T21:05:05.494Z,100760.50
2022-12-06T21:07:32.183Z,100753.94
2022-12-06T21:09:59.163Z,100758.75
2022-12-06T21:12:25.889Z,100753.31
2022-12-06T21:14:54.405Z,100758.63
2022-12-06T21:17:23.627Z,100751.63
2022-12-06T21:19:52.465Z,100749.88
2022-12-06T21:22:18.940Z,100752.34
2022-12-06T21:24:45.812Z,100748.19
2022-12-06T21:27:12.337Z,100762.06
2022-12-06T21:29:42.621Z,100755.00
2022-12-06T21:32:09.493Z,100755.50
2022-12-06T21:34:46.622Z,100759.75
2022-12-06T21:37:13.431Z,100757.47
2022-12-06T21:39:41.155Z,100764.94
2022-12-06T21:42:18.734Z,100760.22
2022-12-06T21:44:45.536Z,100759.66
2022-12-06T21:47:12.449Z,100749.34
2022-12-06T21:49:56.115Z,100744.66
2022-12-06T21:52:22.668Z,100746.59
2022-12-06T21:54:49.347Z,100749.44
2022-12-06T21:57:16.145Z,100754.63
2022-12-06T21:59:42.625Z,100752.41
2022-12-06T22:02:09.723Z,100753.66
2022-12-06T22:04:36.601Z,100754.53
2022-12-06T22:07:03.185Z,100757.94
2022-12-06T22:09:29.881Z,100761.06
2022-12-06T22:11:56.598Z,100751.56
2022-12-06T22:14:23.204Z,100756.06
2022-12-06T22:16:51.132Z,100755.00
2022-12-06T22:19:18.337Z,100753.34
2022-12-06T22:21:45.096Z,100754.03
2022-12-06T22:24:18.561Z,100754.22
2022-12-06T22:26:47.749Z,100754.16
2022-12-06T22:29:14.812Z,100748.34
2022-12-06T22:31:41.560Z,100745.75
2022-12-06T22:34:08.172Z,100750.41
2022-12-06T22:36:34.919Z,100747.66
2022-12-06T22:39:02.501Z,100748.81
2022-12-06T22:41:29.499Z,100748.84
2022-12-06T22:43:57.423Z,100742.06
2022-12-06T22:46:26.373Z,100746.34
2022-12-06T22:48:53.356Z,100740.63
2022-12-06T22:51:24.703Z,100742.38
2022-12-06T22:53:55.946Z,100735.44
2022-12-06T22:56:22.753Z,100733.91
2022-12-06T22:58:49.287Z,100739.78
2022-12-06T23:01:17.225Z,100737.38
2022-12-06T23:03:45.241Z,100732.13
2022-12-06T23:06:12.597Z,100737.38
2022-12-06T23:08:39.260Z,100727.09
2022-12-06T23:11:07.597Z,100718.59
2022-12-06T23:13:34.690Z,100719.38
2022-12-06T23:16:02.599Z,100719.50
2022-12-06T23:18:29.677Z,100708.50
2022-12-06T23:21:03.202Z,100720.78
2022-12-06T23:23:29.839Z,100723.41
2022-12-06T23:26:00.490Z,100727.03
2022-12-06T23:28:26.962Z,100723.50
2022-12-06T23:30:53.500Z,100727.03
2022-12-06T23:33:22.786Z,100717.94
2022-12-06T23:35:49.694Z,100720.66
2022-12-06T23:38:16.503Z,100724.91
2022-12-06T23:40:42.974Z,100715.59
2022-12-06T23:43:09.649Z,100718.88
2022-12-06T23:45:36.140Z,100715.63
2022-12-06T23:48:02.841Z,100714.78
2022-12-06T23:50:29.426Z,100707.81
2022-12-06T23:52:55.912Z,100710.59
2022-12-06T23:55:22.551Z,100708.75
2022-12-06T23:57:49.054Z,100713.06
